South Lake Tahoe, CA

9:08 PM PST on January 23, 2017 (GMT -0800)
Montgomery Estates | | Change Station
Active Advisory: Hydrologic Statement

Elev 6542 ft 38.90 °N, 119.96 °W | Updated 4 seconds ago

Overcast
Overcast
18.3 °F
Feels Like 18 °F
N
0.0
Wind Variable Wind from SE
Gusts 0.0 mph

Today
High -- | Low -- °F
--% Chance of Precip.
Yesterday
High -- | Low -- °F
Precip. -- in
Pressure 29.83 in
Visibility 10.0 miles
Clouds Few 2600 ft
Overcast 4300 ft
Windchill 18 °F
Dew Point 10 °F
Humidity 69%
Rainfall 0.00 in
Snow Depth Not available.
7:12 AM 5:11 PM
Waning Crescent, 14% visible
METAR KTVL 240453Z AUTO 19003KT 10SM FEW026 OVC043 M09/M11 A2973 RMK AO2 SLP099 T10891111
Pressure 29.83 in
Visibility 10.0 miles
Clouds Few 2600 ft
Overcast 4300 ft
Windchill 18 °F
Dew Point 10 °F
Humidity 69%
Rainfall 0.00 in
Snow Depth Not available.
7:12 AM 5:11 PM
Waning Crescent, 14% visible
METAR KTVL 240453Z AUTO 19003KT 10SM FEW026 OVC043 M09/M11 A2973 RMK AO2 SLP099 T10891111

Get Your Daily Forecast Email!

Thanks for signing up!

Be on the lookout for a verification email in your inbox.

You'll start receiving the daily forecast at 8 AM.

×

10-Day Weather Forecast

Almanac

Astronomy

Jan. 23, 2017 Rise Set
Actual Time
Civil Twilight
Nautical Twilight
Astronomical Twilight
Moon
Length of Visible Light
Length of Day
Tomorrow will be .
, % of the Moon is Illuminated

Today's Extremes

State Highs State Lows

Community

WunderPhotos

Upload Photos

1,962,540 photos uploaded!

WunderBlog® & News

Nearby

Air Quality

  Air Quality AQ Index Pollutant
Not available.

Snow Depth

Station Depth Elevation

Earthquake Activity

City Distance Mag. Time & Date
Minimum magnitude displayed is 2.5.

Coastal Water Temperatures

Place Temperature

Stations

Nearby Weather Stations

Station Location Temp. Windchill Dew Point Humidity Wind Precip. Elev Updated Type
                   

Watches & Warnings

Hydrologic Statement
Issued: 3:14 PM PST Jan. 23, 2017 – National Weather Service

Forecast information for
Bear River above Wheatland.
* At 2:45 PM Monday the stage was 8.4 feet.
* Forecast to recede to near 7.0 ft tomorrow afternoon then forecast
to fluctuate near 7.0 ft thru tomorrow afternoon.
* Flood stage 24.0 ft
* monitor stage 16.0 ft


&&

Lat... Lon 3899 12158 3903 12142 3897 12133 3882 12161